Time;durP1;ratioP1;P1;durP2;ratioP2;P2;SDS_P1;SDS_P2;PMS_P1;PMS_P2;Temp;Humidity;BMP_temperature;BMP_pressure;BME280_temperature;BME280_humidity;BME280_pressure;Samples;Min_cycle;Max_cycle;Signal;HPM_P1;HPM_P2
2021/09/13 00:01:19;;;;;;;;;14.50;14.00;;;;;21.38;50.10;101155.47;5080798;27;45493;-50
2021/09/13 00:03:44;;;;;;;;;10.75;9.25;;;;;21.44;49.50;101165.91;5061867;28;48109;-50
2021/09/13 00:06:09;;;;;;;;;8.00;8.00;;;;;21.48;50.06;101160.34;5061992;27;45439;-52
2021/09/13 00:08:35;;;;;;;;;9.25;9.25;;;;;21.52;49.38;101160.06;5076162;27;45531;-49
2021/09/13 00:11:00;;;;;;;;;14.50;14.50;;;;;21.55;49.26;101157.16;5080115;27;45711;-51
2021/09/13 00:13:26;;;;;;;;;10.00;8.75;;;;;21.57;49.47;101159.75;5079228;28;47448;-52
2021/09/13 00:15:52;;;;;;;;;12.00;10.00;;;;;21.58;49.81;101158.81;5079986;28;45422;-51
2021/09/13 00:18:17;;;;;;;;;9.00;9.00;;;;;21.59;49.23;101158.69;5077908;28;45466;-51
2021/09/13 00:20:43;;;;;;;;;8.00;8.00;;;;;21.62;49.20;101158.53;5078262;27;45779;-52
2021/09/13 00:23:08;;;;;;;;;10.00;7.25;;;;;21.63;49.50;101154.00;5078703;28;46788;-52
2021/09/13 00:25:34;;;;;;;;;8.75;8.75;;;;;21.62;49.16;101155.84;5079100;27;45717;-50
2021/09/13 00:27:59;;;;;;;;;8.25;7.75;;;;;21.66;49.19;101159.22;5082152;27;45405;-51
2021/09/13 00:30:25;;;;;;;;;8.00;8.00;;;;;21.67;49.45;101153.72;5080464;28;45319;-52
2021/09/13 00:32:50;;;;;;;;;9.25;8.75;;;;;21.69;49.24;101142.81;5081230;27;47143;-52
2021/09/13 00:35:16;;;;;;;;;8.50;8.00;;;;;21.70;48.96;101140.00;5080043;28;45700;-51
2021/09/13 00:37:42;;;;;;;;;9.00;7.25;;;;;21.71;49.47;101141.75;5080497;27;45471;-51
2021/09/13 00:40:10;;;;;;;;;9.00;8.75;;;;;21.71;48.86;101133.66;5061545;28;45449;-51
2021/09/13 00:42:35;;;;;;;;;11.00;9.00;;;;;21.70;49.03;101134.59;5078423;28;47190;-50
2021/09/13 00:45:02;;;;;;;;;8.50;8.50;;;;;21.69;49.37;101135.56;5078775;28;45311;-52
2021/09/13 00:47:28;;;;;;;;;7.75;7.75;;;;;21.67;49.33;101139.34;5078893;28;45301;-51
2021/09/13 00:49:54;;;;;;;;;9.00;8.75;;;;;21.66;49.39;101132.19;5069691;27;45499;-53
2021/09/13 00:52:20;;;;;;;;;8.25;8.25;;;;;21.62;49.06;101136.06;5073467;28;47362;-50
2021/09/13 00:54:46;;;;;;;;;7.75;7.75;;;;;21.59;49.42;101128.13;5059678;28;45454;-52
2021/09/13 00:57:13;;;;;;;;;8.00;7.00;;;;;21.55;49.05;101132.84;5078677;28;45378;-52
2021/09/13 00:59:39;;;;;;;;;9.00;7.25;;;;;21.49;49.64;101133.25;5079680;28;45437;-53
2021/09/13 01:02:04;;;;;;;;;7.75;7.75;;;;;21.50;49.54;101131.41;5079282;28;48459;-49
2021/09/13 01:04:30;;;;;;;;;9.00;8.50;;;;;21.49;49.29;101135.94;5079283;28;45851;-51
2021/09/13 01:06:56;;;;;;;;;8.50;7.75;;;;;21.47;49.62;101124.38;5061226;28;45433;-52
2021/09/13 01:09:22;;;;;;;;;8.50;8.50;;;;;21.44;49.75;101129.94;5079770;28;45260;-54
2021/09/13 01:11:49;;;;;;;;;8.00;8.00;;;;;21.41;49.33;101132.81;5067570;28;47455;-53
2021/09/13 01:14:15;;;;;;;;;7.50;7.50;;;;;21.38;49.23;101130.31;5060207;28;45464;-53
2021/09/13 01:16:41;;;;;;;;;7.25;7.00;;;;;21.35;49.95;101127.81;5078839;28;45520;-52
2021/09/13 01:19:06;;;;;;;;;8.75;8.25;;;;;21.35;49.84;101134.06;5078847;28;45426;-48
2021/09/13 01:21:35;;;;;;;;;8.67;6.67;;;;;21.33;49.86;101127.88;5079291;28;47238;-52
2021/09/13 01:24:01;;;;;;;;;7.75;7.75;;;;;21.32;50.02;101130.66;5079106;28;45316;-51
2021/09/13 01:26:26;;;;;;;;;9.00;8.50;;;;;21.29;49.59;101137.13;5086936;27;45467;-53
2021/09/13 01:28:52;;;;;;;;;7.50;7.50;;;;;21.28;50.11;101139.91;5079730;27;45382;-53
2021/09/13 01:31:18;;;;;;;;;8.00;7.00;;;;;21.27;49.47;101132.78;5079111;27;47005;-53
2021/09/13 01:33:43;;;;;;;;;9.33;8.67;;;;;21.26;49.73;101125.66;5078936;27;45252;-52
2021/09/13 01:36:09;;;;;;;;;10.33;8.33;;;;;21.24;50.08;101122.16;5079104;28;45797;-52
2021/09/13 01:38:34;;;;;;;;;7.67;7.00;;;;;21.23;49.51;101123.97;5036149;27;45512;-53
2021/09/13 01:41:00;;;;;;;;;9.00;9.00;;;;;21.21;50.09;101120.47;5077020;27;47058;-50
2021/09/13 01:43:25;;;;;;;;;9.33;9.00;;;;;21.19;50.18;101119.69;5060024;28;45472;-52
2021/09/13 01:45:50;;;;;;;;;8.00;8.00;;;;;21.18;49.88;101120.66;5078578;27;45471;-52
2021/09/13 01:48:16;;;;;;;;;9.00;7.00;;;;;21.17;49.77;101117.09;5060283;28;45453;-53
2021/09/13 01:50:42;;;;;;;;;8.33;8.33;;;;;21.15;49.98;101115.44;5078361;28;48192;-52
2021/09/13 01:53:07;;;;;;;;;7.00;7.00;;;;;21.14;49.76;101121.81;5078420;27;45451;-51
2021/09/13 01:55:33;;;;;;;;;7.67;7.67;;;;;21.12;50.23;101126.44;5078653;28;45345;-53
2021/09/13 01:57:58;;;;;;;;;7.67;7.67;;;;;21.09;50.24;101130.19;5078293;27;46018;-51
2021/09/13 02:00:24;;;;;;;;;9.33;8.67;;;;;21.06;49.52;101124.09;5078150;27;47906;-52
2021/09/13 02:02:50;;;;;;;;;7.00;7.00;;;;;21.02;49.77;101123.41;5059952;28;45852;-52
2021/09/13 02:05:15;;;;;;;;;6.67;6.67;;;;;21.00;50.26;101122.63;5078494;27;45358;-49
2021/09/13 02:07:41;;;;;;;;;6.00;6.00;;;;;21.00;49.66;101129.84;5043630;28;45540;-52
2021/09/13 02:10:07;;;;;;;;;10.00;8.00;;;;;20.97;50.11;101116.56;5076509;28;46169;-50
2021/09/13 02:12:32;;;;;;;;;7.00;7.00;;;;;20.94;49.98;101119.41;5059747;28;45411;-53
2021/09/13 02:14:58;;;;;;;;;10.50;8.00;;;;;20.92;49.88;101118.63;5060076;28;45484;-51
2021/09/13 02:17:24;;;;;;;;;10.00;10.00;;;;;20.90;50.32;101117.84;5060200;28;46200;-52
2021/09/13 02:19:49;;;;;;;;;8.00;8.00;;;;;20.83;49.95;101117.31;5077885;27;48093;-51
2021/09/13 02:22:15;;;;;;;;;9.25;9.25;;;;;20.78;50.18;101114.91;5059549;27;45986;-48
2021/09/13 02:24:42;;;;;;;;;7.50;7.50;;;;;20.75;50.17;101112.41;5051452;28;45528;-50
2021/09/13 02:27:07;;;;;;;;;7.00;7.00;;;;;20.75;50.33;101125.00;5067192;28;45382;-51
2021/09/13 02:29:33;;;;;;;;;16.25;15.50;;;;;20.74;50.81;101118.75;5077632;28;48026;-51
2021/09/13 02:31:58;;;;;;;;;8.50;7.50;;;;;20.75;50.80;101122.31;5077496;28;45421;-51
2021/09/13 02:34:24;;;;;;;;;8.50;8.50;;;;;20.72;50.64;101125.19;5078441;28;45373;-51
2021/09/13 02:36:49;;;;;;;;;9.75;8.75;;;;;20.71;50.53;101120.72;5078142;28;45279;-51
2021/09/13 02:39:15;;;;;;;;;12.00;10.00;;;;;20.68;50.78;101116.38;5077545;28;48167;-50
2021/09/13 02:41:40;;;;;;;;;7.00;7.00;;;;;20.64;50.58;101120.22;5059469;28;45684;-50
2021/09/13 02:44:06;;;;;;;;;9.75;8.75;;;;;20.60;51.06;101118.69;5078172;28;45435;-49
2021/09/13 02:46:31;;;;;;;;;8.50;8.50;;;;;20.60;50.64;101115.97;5078165;28;45215;-51
2021/09/13 02:48:57;;;;;;;;;9.25;8.25;;;;;20.60;51.19;101120.50;5077265;28;46536;-49
2021/09/13 02:51:23;;;;;;;;;9.25;9.25;;;;;20.57;50.79;101114.31;5077883;28;45326;-51
2021/09/13 02:53:48;;;;;;;;;7.00;7.00;;;;;20.59;51.32;101116.06;5077977;28;45356;-50
2021/09/13 02:56:14;;;;;;;;;8.00;8.00;;;;;20.57;51.41;101117.00;5078291;28;45540;-56
2021/09/13 02:58:39;;;;;;;;;10.00;10.00;;;;;20.56;51.38;101123.34;5059655;28;48263;-51
2021/09/13 03:01:05;;;;;;;;;10.00;8.50;;;;;20.56;51.29;101112.56;5076547;28;45634;-52
2021/09/13 03:03:30;;;;;;;;;8.50;8.50;;;;;20.55;50.76;101112.66;5077755;28;45461;-51
2021/09/13 03:05:56;;;;;;;;;8.75;8.75;;;;;20.54;51.28;101108.22;5077651;27;45413;-48
2021/09/13 03:08:21;;;;;;;;;8.25;8.25;;;;;20.53;51.54;101109.19;5066803;27;46051;-49
2021/09/13 03:10:47;;;;;;;;;7.75;7.75;;;;;20.51;51.24;101100.31;5080079;27;45357;-50
2021/09/13 03:13:12;;;;;;;;;7.75;7.75;;;;;20.50;51.53;101099.44;5081312;27;45310;-51
2021/09/13 03:15:38;;;;;;;;;9.75;9.75;;;;;20.49;51.18;101088.75;5081260;27;45443;-49
2021/09/13 03:18:04;;;;;;;;;9.75;9.75;;;;;20.47;51.83;101082.59;5062456;28;46074;-52
2021/09/13 03:20:29;;;;;;;;;10.00;8.50;;;;;20.46;51.68;101095.19;5062755;27;45918;-51
2021/09/13 03:22:55;;;;;;;;;11.00;10.50;;;;;20.45;51.37;101100.66;5081254;27;45650;-52
2021/09/13 03:25:21;;;;;;;;;9.75;9.75;;;;;20.44;51.79;101098.91;5080831;27;45422;-50
2021/09/13 03:27:46;;;;;;;;;9.50;9.50;;;;;20.40;51.66;101091.94;5071309;28;48208;-49
2021/09/13 03:30:12;;;;;;;;;10.25;10.00;;;;;20.38;51.73;101094.72;5062139;27;45271;-49
2021/09/13 03:32:38;;;;;;;;;10.00;10.00;;;;;20.38;51.59;101097.41;5080016;27;45408;-53
2021/09/13 03:35:04;;;;;;;;;11.25;10.00;;;;;20.37;51.49;101097.50;5062221;27;45575;-49
2021/09/13 03:37:30;;;;;;;;;9.75;9.75;;;;;20.36;52.08;101093.94;5084088;27;48177;-53
2021/09/13 03:39:55;;;;;;;;;11.25;11.25;;;;;20.35;51.99;101089.50;5081337;27;45893;-53
2021/09/13 03:42:21;;;;;;;;;10.75;9.00;;;;;20.35;51.83;101092.19;5062658;28;45402;-53
2021/09/13 03:44:46;;;;;;;;;9.00;9.00;;;;;20.33;51.66;101085.13;5080552;27;45607;-52
2021/09/13 03:47:12;;;;;;;;;9.50;8.50;;;;;20.33;51.89;101087.81;5081656;27;47855;-53
2021/09/13 03:49:37;;;;;;;;;13.00;12.00;;;;;20.31;52.07;101085.22;5078870;27;45473;-52
2021/09/13 03:52:07;;;;;;;;;13.75;10.00;;;;;20.29;51.74;101088.00;5079558;28;45485;-52
2021/09/13 03:54:34;;;;;;;;;11.25;11.25;;;;;20.29;52.30;101087.13;5062534;28;45492;-53
2021/09/13 03:56:59;;;;;;;;;9.00;9.00;;;;;20.30;52.10;101088.88;5080110;28;48704;-51
2021/09/13 03:59:25;;;;;;;;;10.25;10.25;;;;;20.28;51.81;101088.09;5080431;28;45761;-53
2021/09/13 04:01:50;;;;;;;;;8.50;8.50;;;;;20.27;52.19;101091.75;5074683;28;45399;-53
2021/09/13 04:04:17;;;;;;;;;11.00;11.00;;;;;20.26;52.36;101090.00;5080461;28;45404;-52
2021/09/13 04:06:49;;;;;;;;;10.00;10.00;;;;;20.25;52.10;101089.16;5080222;28;48139;-53
2021/09/13 04:11:59;;;;;;;;;7.50;7.50;;;;;20.26;52.55;101088.19;5080584;28;45272;-52
2021/09/13 04:14:28;;;;;;;;;12.00;11.25;;;;;20.27;52.64;101086.34;5080547;28;45468;-52
2021/09/13 04:16:55;;;;;;;;;10.00;10.00;;;;;20.28;52.50;101085.41;5080120;27;47230;-51
2021/09/13 04:19:22;;;;;;;;;10.50;10.50;;;;;20.27;52.46;101087.22;5061240;28;45240;-52
2021/09/13 04:21:49;;;;;;;;;11.50;11.50;;;;;20.28;52.69;101085.41;5080736;28;45466;-51
2021/09/13 04:24:14;;;;;;;;;11.75;11.50;;;;;20.25;52.48;101077.50;5078629;27;45422;-50
2021/09/13 04:26:40;;;;;;;;;13.25;10.25;;;;;20.25;52.71;101083.75;5087499;27;47125;-53
2021/09/13 04:29:06;;;;;;;;;9.00;9.00;;;;;20.24;52.10;101073.94;5080418;27;45375;-52
2021/09/13 04:31:32;;;;;;;;;10.25;10.00;;;;;20.25;52.25;101072.97;5076721;27;47839;-51
2021/09/13 04:33:57;;;;;;;;;10.25;10.25;;;;;20.26;52.76;101077.41;5080488;27;46183;-53
2021/09/13 04:36:23;;;;;;;;;12.75;11.75;;;;;20.25;52.75;101067.59;5079885;27;46465;-49
2021/09/13 04:38:48;;;;;;;;;10.00;10.00;;;;;20.24;52.57;101073.94;5084926;27;45899;-52
2021/09/13 04:41:14;;;;;;;;;14.25;13.50;;;;;20.23;52.76;101061.41;5079100;27;45599;-48
2021/09/13 04:43:39;;;;;;;;;11.75;11.75;;;;;20.22;52.66;101058.81;5080239;27;45287;-53
2021/09/13 04:46:05;;;;;;;;;13.25;12.25;;;;;20.22;52.34;101070.47;5061290;27;47536;-51
2021/09/13 04:48:31;;;;;;;;;10.00;10.00;;;;;20.22;52.54;101067.75;5061258;28;45970;-53
2021/09/13 04:50:56;;;;;;;;;11.75;11.75;;;;;20.21;52.80;101068.72;5079587;27;45553;-51
2021/09/13 04:53:22;;;;;;;;;11.00;11.00;;;;;20.22;52.92;101065.06;5076014;27;45294;-51
2021/09/13 04:55:47;;;;;;;;;9.00;9.00;;;;;20.22;53.03;101072.28;5064482;27;47259;-52
2021/09/13 04:58:13;;;;;;;;;11.50;11.50;;;;;20.21;53.14;101074.13;5065799;27;45409;-52
2021/09/13 05:00:39;;;;;;;;;14.25;11.25;;;;;20.21;52.69;101074.13;5065448;27;45426;-53
2021/09/13 05:03:05;;;;;;;;;10.75;10.75;;;;;20.20;52.75;101075.06;5070399;27;45682;-52
2021/09/13 05:05:30;;;;;;;;;11.50;11.50;;;;;20.19;52.87;101075.13;5070675;27;45964;-53
2021/09/13 05:07:56;;;;;;;;;14.75;14.75;;;;;20.19;53.08;101073.31;5063292;27;45472;-52
2021/09/13 05:10:22;;;;;;;;;14.50;13.50;;;;;20.17;52.82;101067.13;5070167;27;45440;-52
2021/09/13 05:12:47;;;;;;;;;13.75;13.50;;;;;20.17;52.97;101071.66;5071262;27;45672;-53
2021/09/13 05:15:13;;;;;;;;;14.25;12.50;;;;;20.18;53.28;101070.69;5064775;27;46244;-53
2021/09/13 05:17:39;;;;;;;;;14.00;14.00;;;;;20.17;52.93;101074.34;5066868;27;45545;-52
2021/09/13 05:20:05;;;;;;;;;11.50;11.50;;;;;20.15;53.24;101065.47;5068073;27;45297;-52
2021/09/13 05:22:31;;;;;;;;;11.50;11.50;;;;;20.11;52.78;101064.78;5072146;27;45779;-54
2021/09/13 05:24:57;;;;;;;;;13.50;11.25;;;;;20.11;53.02;101064.78;5068012;27;47379;-53
2021/09/13 05:27:22;;;;;;;;;10.00;10.00;;;;;20.10;52.95;101076.53;5064480;27;45484;-50
2021/09/13 05:29:48;;;;;;;;;9.75;9.75;;;;;20.09;52.99;101074.78;5069982;27;45674;-53
2021/09/13 05:32:13;;;;;;;;;15.50;14.00;;;;;20.09;52.87;101069.41;5047257;28;45934;-53
2021/09/13 05:34:39;;;;;;;;;14.00;13.00;;;;;20.06;53.14;101066.00;5066430;27;46253;-54
2021/09/13 05:37:05;;;;;;;;;13.25;11.50;;;;;20.06;53.02;101068.69;5068917;27;46040;-53
2021/09/13 05:39:30;;;;;;;;;13.75;12.75;;;;;20.09;53.18;101073.94;5069516;27;45685;-53
2021/09/13 05:41:56;;;;;;;;;13.50;12.25;;;;;20.10;53.23;101064.88;5065529;28;45392;-53
2021/09/13 05:44:21;;;;;;;;;16.00;15.25;;;;;20.07;53.07;101062.34;5074124;27;47370;-58
2021/09/13 05:46:47;;;;;;;;;11.75;11.75;;;;;20.04;53.43;101068.78;5076095;27;46520;-51
2021/09/13 05:49:13;;;;;;;;;11.75;11.25;;;;;20.00;53.20;101069.91;5053941;28;45377;-53
2021/09/13 05:51:42;;;;;;;;;17.00;15.50;;;;;19.99;53.73;101070.88;5068511;28;45563;-52
2021/09/13 05:54:08;;;;;;;;;15.00;15.00;;;;;19.98;53.41;101067.31;5057060;28;45756;-50
2021/09/13 05:56:34;;;;;;;;;16.00;15.75;;;;;19.98;53.45;101063.75;5060625;28;45715;-53
2021/09/13 05:58:59;;;;;;;;;16.75;15.75;;;;;19.98;53.89;101056.53;5060898;28;45319;-52
2021/09/13 06:01:25;;;;;;;;;14.25;14.25;;;;;20.00;53.74;101061.81;5061951;28;45548;-53
2021/09/13 06:03:50;;;;;;;;;16.00;12.50;;;;;20.01;53.69;101060.00;5060886;28;46145;-53
2021/09/13 06:06:16;;;;;;;;;15.00;15.00;;;;;20.02;53.64;101062.59;5070637;28;45439;-52
2021/09/13 06:08:42;;;;;;;;;14.25;11.75;;;;;20.00;53.43;101059.13;5069434;27;45495;-53
2021/09/13 06:11:07;;;;;;;;;16.00;14.25;;;;;20.02;53.76;101064.44;5067841;28;45382;-51
2021/09/13 06:13:33;;;;;;;;;21.25;14.50;;;;;20.01;53.66;101066.25;5065150;28;48122;-53
2021/09/13 06:15:58;;;;;;;;;15.00;12.00;;;;;19.99;53.59;101066.34;5070201;28;45557;-53
2021/09/13 06:18:24;;;;;;;;;12.50;12.50;;;;;20.00;53.97;101067.22;5067247;27;45542;-53
2021/09/13 06:20:49;;;;;;;;;16.75;15.00;;;;;20.01;53.80;101066.25;5069732;28;45417;-52
2021/09/13 06:23:16;;;;;;;;;14.25;14.25;;;;;20.03;53.98;101067.03;5070682;28;48498;-54
2021/09/13 06:25:41;;;;;;;;;16.50;15.00;;;;;20.05;53.61;101069.63;5076177;27;46048;-49
2021/09/13 06:28:07;;;;;;;;;17.75;16.00;;;;;20.06;53.77;101074.94;5085674;27;45623;-53
2021/09/13 06:30:33;;;;;;;;;16.50;16.50;;;;;20.08;53.75;101069.50;5077717;27;45355;-52
2021/09/13 06:32:58;;;;;;;;;17.25;15.75;;;;;20.07;53.63;101063.19;5060078;28;46157;-51
2021/09/13 06:35:24;;;;;;;;;16.00;16.00;;;;;20.08;53.77;101067.66;5070445;27;45514;-50
2021/09/13 06:37:49;;;;;;;;;15.00;13.50;;;;;20.11;53.95;101074.72;5082498;27;45430;-52
2021/09/13 06:40:15;;;;;;;;;17.00;17.00;;;;;20.14;54.20;101072.69;5074805;27;45567;-52
2021/09/13 06:42:41;;;;;;;;;18.75;17.00;;;;;20.18;53.95;101074.25;5058927;28;47441;-52
2021/09/13 06:45:41;;;;;;;;;18.00;16.25;;;;;20.22;53.99;101080.38;5062502;27;45665;-53
2021/09/13 06:47:59;;;;;;;;;15.50;15.50;;;;;20.26;53.81;101077.41;5076401;27;45707;-52
2021/09/13 06:50:27;;;;;;;;;14.75;14.75;;;;;20.25;53.51;101085.56;5074600;27;45766;-52
2021/09/13 06:52:55;;;;;;;;;16.00;14.75;;;;;20.24;54.08;101087.41;5079927;27;45542;-52
2021/09/13 06:55:21;;;;;;;;;15.00;14.50;;;;;20.24;53.71;101086.53;5062167;28;45989;-53
2021/09/13 06:57:48;;;;;;;;;18.50;16.25;;;;;20.24;53.97;101098.19;5062297;28;45354;-52
2021/09/13 07:00:16;;;;;;;;;18.00;16.50;;;;;20.26;54.20;101090.88;5081257;27;45693;-54
2021/09/13 07:02:44;;;;;;;;;16.75;14.75;;;;;20.29;53.87;101097.91;5080604;28;47238;-53
2021/09/13 07:05:11;;;;;;;;;21.00;20.00;;;;;20.33;54.26;101090.53;5080824;28;45920;-51
2021/09/13 07:07:37;;;;;;;;;18.25;16.75;;;;;20.40;54.07;101094.63;5080647;27;45557;-53
2021/09/13 07:10:05;;;;;;;;;20.00;17.25;;;;;20.42;53.82;101087.34;5063459;28;45395;-52
2021/09/13 07:12:31;;;;;;;;;19.75;19.00;;;;;20.43;53.84;101083.69;5080201;28;48398;-51
2021/09/13 07:14:57;;;;;;;;;17.25;17.25;;;;;20.43;53.54;101089.94;5075236;27;45373;-52
2021/09/13 07:17:22;;;;;;;;;19.00;17.25;;;;;20.45;53.76;101087.16;5080803;27;45370;-54
2021/09/13 07:19:48;;;;;;;;;21.25;21.25;;;;;20.49;54.16;101089.63;5078218;27;45534;-54
2021/09/13 07:22:14;;;;;;;;;23.00;23.00;;;;;20.54;54.05;101081.25;5062700;27;47319;-59
2021/09/13 07:24:42;;;;;;;;;18.75;18.25;;;;;20.52;54.08;101080.47;5074288;28;45360;-53
2021/09/13 07:27:07;;;;;;;;;18.50;18.50;;;;;20.53;53.61;101080.38;5088922;27;45490;-52
2021/09/13 07:29:33;;;;;;;;;19.50;18.50;;;;;20.54;54.21;101079.44;5082769;27;45282;-54
2021/09/13 07:32:02;;;;;;;;;17.00;17.00;;;;;20.59;53.99;101081.00;5079940;27;47355;-54
2021/09/13 07:34:28;;;;;;;;;18.00;16.50;;;;;20.60;53.48;101078.22;5077651;28;45639;-54
2021/09/13 07:36:57;;;;;;;;;21.25;18.50;;;;;20.63;53.58;101075.34;5066591;27;45908;-53
2021/09/13 07:39:24;;;;;;;;;17.75;17.75;;;;;20.69;53.87;101077.66;5071484;27;45537;-55
2021/09/13 07:41:50;;;;;;;;;17.00;15.00;;;;;20.75;54.30;101071.06;5080262;28;47232;-53
2021/09/13 07:44:15;;;;;;;;;20.00;20.00;;;;;20.83;53.98;101079.56;5080123;28;45515;-54
2021/09/13 07:46:41;;;;;;;;;22.50;22.50;;;;;20.89;54.12;101078.34;5078390;28;45405;-54
2021/09/13 07:49:07;;;;;;;;;19.75;19.00;;;;;20.94;53.92;101076.25;5080756;27;45515;-57
2021/09/13 07:51:33;;;;;;;;;19.50;19.50;;;;;20.96;53.65;101068.91;5073052;27;47443;-53
2021/09/13 07:53:58;;;;;;;;;16.75;15.25;;;;;21.01;53.79;101073.09;5079271;27;45683;-54
2021/09/13 07:56:24;;;;;;;;;16.75;16.50;;;;;21.04;53.33;101078.31;5079473;27;45376;-55
2021/09/13 07:58:50;;;;;;;;;15.50;15.50;;;;;21.07;53.52;101072.72;5070833;28;45325;-55
2021/09/13 08:01:15;;;;;;;;;20.00;19.25;;;;;21.09;53.26;101068.13;5069505;27;47988;-55
2021/09/13 08:03:41;;;;;;;;;20.50;19.75;;;;;21.13;53.38;101066.97;5067392;28;45426;-55
2021/09/13 08:06:07;;;;;;;;;17.50;17.50;;;;;21.16;53.05;101058.69;5080852;27;45687;-55
2021/09/13 08:08:33;;;;;;;;;21.25;20.75;;;;;21.19;53.24;101054.06;5083316;27;45601;-54
2021/09/13 08:10:59;;;;;;;;;17.25;17.25;;;;;21.18;53.26;101058.59;5078447;28;47337;-53
2021/09/13 08:13:24;;;;;;;;;18.25;16.50;;;;;21.19;53.13;101057.63;5079778;27;46084;-53
2021/09/13 08:15:50;;;;;;;;;18.50;18.50;;;;;21.21;53.54;101053.00;5079689;27;45349;-51
2021/09/13 08:18:15;;;;;;;;;22.75;20.25;;;;;21.26;53.60;101056.34;5059696;27;46026;-53
2021/09/13 08:20:41;;;;;;;;;17.75;17.25;;;;;21.28;53.63;101051.72;5059884;28;48181;-54
2021/09/13 08:23:06;;;;;;;;;22.75;21.25;;;;;21.34;53.15;101050.44;5079403;27;45690;-54
2021/09/13 08:25:32;;;;;;;;;22.00;19.50;;;;;21.41;53.21;101044.59;5081635;27;45539;-54
2021/09/13 08:27:57;;;;;;;;;15.00;15.00;;;;;21.53;53.51;101052.91;5080148;27;45856;-53
2021/09/13 08:30:23;;;;;;;;;12.50;12.50;;;;;21.62;52.82;101052.34;5072222;27;48419;-53
2021/09/13 08:32:48;;;;;;;;;14.25;14.25;;;;;21.71;52.82;101055.31;5079046;27;45514;-55
2021/09/13 08:35:14;;;;;;;;;14.00;13.25;;;;;21.81;52.96;101054.75;5079404;27;45472;-55
2021/09/13 08:37:39;;;;;;;;;13.00;11.75;;;;;21.88;52.66;101050.69;5061354;28;45512;-52
2021/09/13 08:40:06;;;;;;;;;13.50;13.50;;;;;21.92;52.31;101042.28;5061670;27;47674;-54
2021/09/13 08:42:43;;;;;;;;;9.25;9.25;;;;;21.96;52.04;101032.13;5062786;28;45806;-56
2021/09/13 08:45:10;;;;;;;;;9.50;9.50;;;;;22.00;52.15;101039.97;5061367;27;45343;-54
2021/09/13 08:47:48;;;;;;;;;12.50;12.25;;;;;22.03;52.00;101039.78;5075106;27;45577;-54
2021/09/13 08:50:28;;;;;;;;;12.00;12.00;;;;;22.06;51.83;101041.44;5079091;27;47434;-54
2021/09/13 08:52:54;;;;;;;;;13.00;12.00;;;;;22.09;51.41;101043.06;5077469;27;45376;-51
2021/09/13 08:55:21;;;;;;;;;9.00;9.00;;;;;22.11;51.95;101042.03;5072849;28;45531;-53
2021/09/13 08:57:47;;;;;;;;;10.75;10.75;;;;;22.15;51.75;101048.09;5087060;27;45449;-53
2021/09/13 09:00:15;;;;;;;;;10.25;9.00;;;;;22.18;51.70;101053.28;5080565;27;47352;-56
2021/09/13 09:02:42;;;;;;;;;10.75;10.00;;;;;22.19;51.43;101053.19;5064863;27;45690;-55
2021/09/13 09:05:09;;;;;;;;;9.50;8.00;;;;;22.21;51.13;101058.50;5079424;27;45417;-50
2021/09/13 09:07:51;;;;;;;;;9.50;9.50;;;;;22.23;51.14;101061.97;5060310;27;45581;-52
2021/09/13 09:10:22;;;;;;;;;6.50;6.00;;;;;22.24;50.96;101064.59;5058416;27;48150;-53
2021/09/13 09:12:58;;;;;;;;;10.00;10.00;;;;;22.27;51.38;101060.81;5076666;27;45437;-54
2021/09/13 09:15:24;;;;;;;;;9.50;8.50;;;;;22.29;51.02;101067.84;5074049;27;45661;-56
2021/09/13 09:17:57;;;;;;;;;9.75;8.50;;;;;22.32;51.27;101066.78;5077291;27;45354;-52
2021/09/13 09:20:24;;;;;;;;;9.25;9.25;;;;;22.34;51.50;101072.94;5078750;27;47085;-52
2021/09/13 09:23:04;;;;;;;;;10.00;10.00;;;;;22.36;51.14;101065.63;5058044;28;45476;-54
2021/09/13 09:25:33;;;;;;;;;8.00;8.00;;;;;22.38;51.26;101058.28;5065558;27;45571;-53
2021/09/13 09:28:16;;;;;;;;;8.50;8.50;;;;;22.40;51.04;101064.44;5085312;27;45457;-56
2021/09/13 09:30:48;;;;;;;;;9.25;9.00;;;;;22.43;51.09;101061.53;5078069;28;47214;-55
2021/09/13 09:33:14;;;;;;;;;9.75;9.75;;;;;22.47;50.80;101051.38;5088319;27;45729;-57
2021/09/13 09:35:50;;;;;;;;;7.67;7.67;;;;;22.51;50.94;101053.78;5078118;28;45289;-55
2021/09/13 09:38:26;;;;;;;;;8.75;8.25;;;;;22.53;50.65;101057.25;5078584;28;45365;-56
2021/09/13 09:41:15;;;;;;;;;10.50;9.00;;;;;22.58;50.97;101051.53;5058950;28;47063;-55
2021/09/13 09:43:57;;;;;;;;;8.25;8.00;;;;;22.62;50.76;101050.38;5064312;27;46236;-56
2021/09/13 09:46:39;;;;;;;;;7.75;7.75;;;;;22.65;50.75;101060.13;5060266;28;45472;-56
2021/09/13 09:49:09;;;;;;;;;8.75;8.75;;;;;22.71;50.40;101052.47;5056936;28;45379;-54
2021/09/13 09:51:38;;;;;;;;;9.50;8.00;;;;;22.74;50.69;101048.66;5058139;28;47185;-55
2021/09/13 09:54:18;;;;;;;;;9.00;9.00;;;;;22.78;50.81;101044.81;5058067;28;45705;-55
2021/09/13 09:57:02;;;;;;;;;10.75;9.75;;;;;22.81;50.64;101039.19;5054312;28;45866;-55
2021/09/13 09:59:35;;;;;;;;;5.50;5.25;;;;;22.85;50.68;101040.72;5050686;28;45693;-55
2021/09/13 10:02:19;;;;;;;;;8.50;8.50;;;;;22.88;50.83;101036.00;5051547;28;47810;-55
2021/09/13 10:04:52;;;;;;;;;10.00;9.00;;;;;22.92;50.56;101019.53;5072809;27;46043;-56
2021/09/13 10:07:17;;;;;;;;;7.25;7.25;;;;;22.93;50.68;101019.44;5058000;27;45537;-54
2021/09/13 10:09:44;;;;;;;;;7.50;7.50;;;;;22.97;50.61;101011.97;5058972;28;45318;-55
2021/09/13 10:12:10;;;;;;;;;12.00;11.25;;;;;23.00;50.52;101009.94;5056486;28;47859;-54
2021/09/13 10:14:36;;;;;;;;;9.00;8.00;;;;;23.05;50.45;101002.34;5057943;28;45282;-55
2021/09/13 10:17:03;;;;;;;;;8.00;8.00;;;;;;;;5055131;28;45492;-54
2021/09/13 10:19:29;;;;;;;;;10.00;9.50;;;;;23.11;50.14;100985.66;5056498;28;45532;-51
2021/09/13 10:21:56;;;;;;;;;10.25;9.50;;;;;23.14;50.61;100990.03;5057553;28;48010;-53
2021/09/13 10:24:25;;;;;;;;;10.75;9.75;;;;;23.16;50.42;100983.53;5053453;28;45673;-55
2021/09/13 10:27:06;;;;;;;;;9.25;8.25;;;;;23.20;50.02;100984.16;5060976;27;45540;-54
2021/09/13 10:29:32;;;;;;;;;8.00;8.00;;;;;23.21;49.65;100988.59;5050929;28;45639;-53
2021/09/13 10:32:23;;;;;;;;;7.00;7.00;;;;;23.25;50.18;100986.53;5057503;28;48179;-53
2021/09/13 10:34:50;;;;;;;;;10.00;8.50;;;;;23.29;50.19;100990.78;5050564;28;45781;-54
2021/09/13 10:37:21;;;;;;;;;7.50;7.00;;;;;23.30;49.85;100971.72;5057092;28;45440;-55
2021/09/13 10:39:47;;;;;;;;;7.00;7.00;;;;;23.32;49.69;100980.59;5060153;28;45507;-53
2021/09/13 10:42:35;;;;;;;;;8.00;7.00;;;;;23.35;49.62;100976.81;5057356;28;46160;-54
2021/09/13 10:45:08;;;;;;;;;9.50;8.75;;;;;23.38;49.69;100973.91;5055749;28;45423;-53
2021/09/13 10:47:34;;;;;;;;;9.00;9.00;;;;;23.39;49.51;100972.91;5071826;28;45770;-54
2021/09/13 10:50:18;;;;;;;;;6.33;6.33;;;;;23.42;49.72;100978.13;5077442;28;45283;-55
2021/09/13 10:52:46;;;;;;;;;9.33;8.00;;;;;23.45;49.48;100972.47;5070003;27;47392;-55
2021/09/13 10:55:12;;;;;;;;;8.33;6.33;;;;;23.47;49.32;100975.94;5075377;28;46163;-53
2021/09/13 10:57:56;;;;;;;;;8.00;7.00;;;;;23.48;49.33;100973.09;5078880;27;45489;-54
2021/09/13 11:00:54;;;;;;;;;8.67;7.00;;;;;23.52;49.30;100970.22;5059660;28;45382;-56
2021/09/13 11:03:32;;;;;;;;;16.00;16.00;;;;;23.54;49.51;100960.13;5064121;28;47417;-55
2021/09/13 11:06:13;;;;;;;;;19.25;16.00;;;;;23.58;49.66;100962.53;5076600;27;45469;-54
2021/09/13 11:08:41;;;;;;;;;13.25;13.00;;;;;23.62;49.97;100957.72;5076388;28;45425;-56
2021/09/13 11:11:10;;;;;;;;;15.75;13.75;;;;;23.66;49.92;100953.84;5077464;28;45559;-56
2021/09/13 11:13:36;;;;;;;;;12.00;12.00;;;;;23.69;50.15;100951.78;5041783;28;48498;-56
2021/09/13 11:16:02;;;;;;;;;10.50;10.50;;;;;23.75;49.98;100947.75;5074236;28;45432;-53
2021/09/13 11:18:31;;;;;;;;;12.50;11.75;;;;;23.80;49.89;100952.84;5058650;28;45784;-57
2021/09/13 11:21:19;;;;;;;;;11.00;10.00;;;;;23.85;49.71;100953.34;5059069;28;45850;-56